createdAt,value
2024-01-24T05:10:06.029Z,101303.30
2024-01-24T13:43:31.215Z,100685.17
2024-01-24T13:46:14.806Z,100689.27
2024-01-24T13:50:59.724Z,100693.98
2024-01-24T14:19:46.627Z,100705.77
2024-01-24T14:22:58.379Z,100704.41
2024-01-24T14:34:34.337Z,100722.18
2024-01-24T14:37:35.596Z,100724.16
2024-01-24T14:40:16.311Z,100717.95
2024-01-24T14:43:26.693Z,100697.67
2024-01-24T14:46:27.336Z,100689.95
2024-01-24T15:01:43.110Z,100621.06
2024-01-24T15:04:09.976Z,100629.95
2024-01-24T15:06:44.022Z,100630.59
2024-01-24T15:09:12.731Z,100625.73
2024-01-24T15:11:42.274Z,100634.70
2024-01-24T15:14:09.315Z,100631.63
2024-01-24T15:16:42.506Z,100627.80
2024-01-24T15:19:09.516Z,100624.06
2024-01-24T15:22:01.537Z,100619.84
2024-01-24T15:24:34.099Z,100599.21
2024-01-24T15:27:13.816Z,100605.48
2024-01-24T15:30:56.263Z,100608.73
2024-01-24T15:33:25.968Z,100603.45
2024-01-24T15:35:59.018Z,100592.20
2024-01-24T15:38:27.111Z,100594.80
2024-01-24T15:40:54.392Z,100595.70
2024-01-24T15:43:38.091Z,100600.98
2024-01-24T15:46:05.459Z,100598.23
2024-01-24T15:48:56.625Z,100587.36
2024-01-24T15:51:23.646Z,100584.36
2024-01-24T15:53:50.647Z,100571.60
2024-01-24T15:56:18.394Z,100564.98
2024-01-24T15:58:45.341Z,100552.52
2024-01-24T16:01:20.202Z,100538.71
2024-01-24T16:03:47.160Z,100535.89
2024-01-24T16:07:05.640Z,100535.27
2024-01-24T16:09:34.078Z,100537.11
2024-01-24T16:12:01.036Z,100546.07
2024-01-24T16:15:18.340Z,100538.92
2024-01-24T16:18:07.394Z,100535.17
2024-01-24T16:28:35.332Z,100544.51
2024-01-24T16:32:16.258Z,100544.91
2024-01-24T16:35:14.712Z,100546.67
2024-01-24T16:37:42.404Z,100539.55
2024-01-24T16:40:16.995Z,100537.59
2024-01-24T16:43:06.140Z,100526.22
2024-01-24T16:45:33.333Z,100512.34
2024-01-24T16:48:34.597Z,100508.10
2024-01-24T16:52:02.623Z,100508.67
2024-01-24T16:54:40.322Z,100517.70
2024-01-24T16:57:25.028Z,100516.29
2024-01-24T16:59:57.864Z,100507.81
2024-01-24T17:02:42.108Z,100500.06
2024-01-24T17:05:53.560Z,100505.73
2024-01-24T17:08:23.604Z,100502.04
2024-01-24T17:11:21.320Z,100508.16
2024-01-24T17:14:45.303Z,100508.96
2024-01-24T17:17:46.841Z,100484.56
2024-01-24T17:20:26.697Z,100469.48
2024-01-24T17:23:48.822Z,100461.33
2024-01-24T17:26:16.758Z,100443.54
2024-01-24T17:29:10.056Z,100425.15
2024-01-24T17:31:51.242Z,100420.42
2024-01-24T17:43:11.686Z,100399.74
2024-01-24T17:54:03.133Z,100453.61
2024-01-24T17:56:36.700Z,100474.78
2024-01-24T17:59:09.248Z,100480.72
2024-01-24T18:02:04.235Z,100492.32
2024-01-24T18:04:33.850Z,100480.45
2024-01-24T18:08:21.483Z,100468.55
2024-01-24T18:15:49.309Z,100443.45
2024-01-24T18:23:38.242Z,100409.05
2024-01-24T19:01:28.697Z,100377.00
2024-01-24T19:04:01.735Z,100378.33
2024-01-24T19:07:35.744Z,100361.23
2024-01-24T19:11:08.936Z,100369.10
2024-01-24T19:23:04.279Z,100368.12
2024-01-24T19:25:42.211Z,100354.23
2024-01-24T20:19:53.991Z,100329.44
